createdAt,value
2022-11-16T00:00:51.020Z,74.72
2022-11-16T00:03:41.275Z,75.05
2022-11-16T00:06:31.597Z,75.27
2022-11-16T00:09:23.977Z,75.26
2022-11-16T00:12:13.384Z,75.07
2022-11-16T00:15:02.824Z,75.04
2022-11-16T00:17:53.742Z,75.41
2022-11-16T00:20:43.194Z,75.33
2022-11-16T00:23:32.897Z,75.40
2022-11-16T00:26:23.166Z,75.12
2022-11-16T00:29:16.621Z,75.42
2022-11-16T00:32:06.875Z,75.28
2022-11-16T00:34:57.804Z,75.73
2022-11-16T00:37:48.433Z,75.80
2022-11-16T00:40:38.050Z,75.72
2022-11-16T00:43:28.914Z,75.89
2022-11-16T00:46:18.518Z,75.93
2022-11-16T00:49:08.252Z,76.08
2022-11-16T00:51:59.203Z,76.04
2022-11-16T00:54:49.124Z,76.08
2022-11-16T00:57:38.565Z,76.17
2022-11-16T01:00:28.107Z,76.16
2022-11-16T01:03:17.672Z,76.68
2022-11-16T01:06:15.028Z,76.51
2022-11-16T01:09:05.932Z,76.68
2022-11-16T01:12:10.645Z,77.18
2022-11-16T01:15:00.149Z,77.83
2022-11-16T01:17:50.102Z,77.90
2022-11-16T01:20:42.536Z,77.92
2022-11-16T01:23:31.724Z,78.15
2022-11-16T01:26:22.514Z,77.86
2022-11-16T01:29:11.858Z,77.67
2022-11-16T01:32:06.584Z,77.93
2022-11-16T01:34:56.475Z,78.00
2022-11-16T01:37:49.433Z,77.75
2022-11-16T01:40:39.808Z,77.29
2022-11-16T01:43:30.615Z,77.54
2022-11-16T01:46:26.698Z,77.09
2022-11-16T01:49:20.550Z,77.25
2022-11-16T01:52:18.026Z,77.34
2022-11-16T01:55:09.040Z,77.34
2022-11-16T01:58:18.642Z,77.15
2022-11-16T02:01:12.699Z,76.72
2022-11-16T02:04:12.290Z,76.67
2022-11-16T02:07:18.129Z,76.58
2022-11-16T02:10:20.651Z,76.36
2022-11-16T02:13:29.527Z,75.96
2022-11-16T02:16:34.579Z,76.33
2022-11-16T02:20:14.925Z,76.12
2022-11-16T02:23:53.150Z,76.19
2022-11-16T02:27:31.739Z,76.05
2022-11-16T02:30:23.622Z,76.08
2022-11-16T02:33:18.201Z,76.19
2022-11-16T02:36:13.144Z,76.50
2022-11-16T02:39:08.226Z,75.91
2022-11-16T02:42:00.828Z,76.41
2022-11-16T02:44:55.546Z,76.42
2022-11-16T02:47:48.232Z,76.13
2022-11-16T02:50:40.380Z,76.40
2022-11-16T02:53:33.738Z,76.38
2022-11-16T02:56:24.494Z,76.71
2022-11-16T02:59:17.797Z,76.65
2022-11-16T03:02:26.070Z,76.76
2022-11-16T03:05:32.133Z,76.45
2022-11-16T03:08:31.905Z,76.36
2022-11-16T03:11:42.406Z,76.62
2022-11-16T03:14:40.020Z,76.42
2022-11-16T03:17:33.972Z,76.54
2022-11-16T03:20:29.312Z,77.09
2022-11-16T03:23:18.913Z,77.09
2022-11-16T03:26:13.223Z,77.17
2022-11-16T03:29:09.736Z,77.37
2022-11-16T03:32:10.135Z,77.40
2022-11-16T03:35:07.990Z,77.06
2022-11-16T03:38:01.938Z,77.23
2022-11-16T03:40:52.576Z,77.02
2022-11-16T03:43:44.886Z,77.07
2022-11-16T03:46:35.706Z,77.33
2022-11-16T03:49:25.690Z,77.27
2022-11-16T03:52:18.511Z,77.01
2022-11-16T03:55:11.368Z,77.46
2022-11-16T03:58:01.309Z,77.51
2022-11-16T04:00:50.831Z,78.25
2022-11-16T04:03:40.167Z,78.67
2022-11-16T04:06:49.429Z,78.20
2022-11-16T04:09:55.936Z,78.45
2022-11-16T04:13:05.202Z,78.86
2022-11-16T04:16:12.360Z,78.39
2022-11-16T04:19:19.419Z,78.21
2022-11-16T04:22:35.012Z,78.10
2022-11-16T04:25:28.622Z,78.30
2022-11-16T04:28:21.945Z,78.55
2022-11-16T04:31:35.749Z,78.75
2022-11-16T04:34:47.177Z,78.55
2022-11-16T04:37:56.423Z,78.40
2022-11-16T04:40:53.147Z,78.58
2022-11-16T04:43:45.784Z,78.92
2022-11-16T04:46:52.357Z,78.89
2022-11-16T04:49:41.804Z,78.97
2022-11-16T04:52:31.430Z,78.83
2022-11-16T04:55:21.310Z,78.82
2022-11-16T04:58:12.779Z,78.79
2022-11-16T05:01:03.852Z,79.22
2022-11-16T05:03:53.546Z,78.67
2022-11-16T05:06:43.001Z,79.54
2022-11-16T05:09:32.403Z,79.33
2022-11-16T05:12:24.577Z,79.16
2022-11-16T05:15:19.924Z,79.45
2022-11-16T05:18:11.973Z,79.27
2022-11-16T05:21:02.848Z,79.78
2022-11-16T05:24:15.138Z,79.82
2022-11-16T05:27:06.694Z,79.91
2022-11-16T05:29:56.311Z,79.65
2022-11-16T05:32:46.729Z,79.98
2022-11-16T05:35:39.525Z,79.75
2022-11-16T05:38:29.226Z,79.90
2022-11-16T05:41:21.435Z,79.56
2022-11-16T05:44:11.123Z,80.10
2022-11-16T05:47:01.388Z,80.21
2022-11-16T05:49:51.237Z,79.84
2022-11-16T05:55:36.269Z,80.30
2022-11-16T05:58:25.754Z,80.53
2022-11-16T06:01:15.965Z,80.77
2022-11-16T06:04:05.299Z,80.49
2022-11-16T06:06:55.390Z,80.30
2022-11-16T06:09:52.000Z,80.59
2022-11-16T06:12:43.999Z,80.78
2022-11-16T06:15:33.263Z,80.29
2022-11-16T06:18:23.316Z,80.58
2022-11-16T06:21:14.389Z,80.28
2022-11-16T06:24:09.001Z,80.56
2022-11-16T06:27:00.553Z,80.40
2022-11-16T06:29:50.244Z,80.99
2022-11-16T06:32:40.126Z,80.36
2022-11-16T06:35:30.806Z,80.86
2022-11-16T06:38:20.800Z,80.47
2022-11-16T06:41:12.349Z,80.57
2022-11-16T06:44:08.325Z,80.38
2022-11-16T06:47:00.768Z,80.04
2022-11-16T06:49:50.538Z,80.44
2022-11-16T06:52:43.958Z,80.17
2022-11-16T06:55:33.895Z,80.18
2022-11-16T06:58:25.833Z,80.53
2022-11-16T07:01:16.562Z,80.40
2022-11-16T07:04:12.016Z,80.37
2022-11-16T07:07:03.823Z,80.96
2022-11-16T07:09:55.227Z,80.65
2022-11-16T07:12:44.654Z,80.61
2022-11-16T07:15:36.196Z,80.92
2022-11-16T07:18:27.244Z,81.20
2022-11-16T07:21:18.613Z,81.26
2022-11-16T07:24:08.536Z,80.40
2022-11-16T07:26:58.501Z,80.94
2022-11-16T07:29:51.020Z,81.15
2022-11-16T07:33:00.957Z,80.66
2022-11-16T07:36:29.842Z,81.22
2022-11-16T07:39:21.930Z,80.43
2022-11-16T07:42:11.904Z,80.91
2022-11-16T07:45:27.428Z,81.61
2022-11-16T07:48:21.038Z,81.98
2022-11-16T07:51:38.562Z,81.15
2022-11-16T07:54:48.313Z,81.62
2022-11-16T07:57:38.395Z,81.33
2022-11-16T08:00:31.081Z,81.53
2022-11-16T08:03:30.167Z,81.13
2022-11-16T08:06:25.093Z,81.90
2022-11-16T08:09:17.268Z,81.89
2022-11-16T08:12:06.936Z,80.87
2022-11-16T08:14:56.956Z,81.07
2022-11-16T08:17:46.506Z,80.55
2022-11-16T08:20:36.701Z,81.08
2022-11-16T08:23:26.409Z,80.75
2022-11-16T08:26:19.396Z,81.00
2022-11-16T08:29:15.323Z,81.64
2022-11-16T08:32:10.259Z,81.23
2022-11-16T08:34:59.751Z,81.69
2022-11-16T08:37:49.103Z,81.85
2022-11-16T08:40:38.707Z,81.60
2022-11-16T08:43:30.481Z,81.53
2022-11-16T08:46:19.942Z,81.51
2022-11-16T08:49:14.243Z,82.19
2022-11-16T08:52:03.854Z,82.00
2022-11-16T08:54:54.439Z,82.09
2022-11-16T08:57:44.120Z,81.86
2022-11-16T09:00:37.177Z,81.22
2022-11-16T09:03:26.544Z,81.80
2022-11-16T09:06:16.618Z,82.63
2022-11-16T09:09:06.414Z,82.84
2022-11-16T09:11:57.163Z,82.73
2022-11-16T09:14:46.454Z,82.46
2022-11-16T09:17:37.164Z,82.61
2022-11-16T09:20:27.468Z,82.60
2022-11-16T09:23:20.929Z,82.68
2022-11-16T09:26:14.702Z,82.81
2022-11-16T09:29:04.704Z,82.86
2022-11-16T09:31:53.924Z,82.60
2022-11-16T09:34:44.659Z,82.59
2022-11-16T09:37:33.950Z,82.85
2022-11-16T09:40:23.802Z,82.85
2022-11-16T09:43:28.299Z,83.22
2022-11-16T09:46:28.032Z,82.87
2022-11-16T09:49:22.626Z,83.36
2022-11-16T09:52:23.542Z,83.00
2022-11-16T09:55:26.137Z,83.56
2022-11-16T09:58:21.333Z,83.71
2022-11-16T10:01:26.274Z,83.38
2022-11-16T10:04:21.576Z,83.44
2022-11-16T10:07:17.972Z,83.28
2022-11-16T10:10:15.628Z,82.94
2022-11-16T10:13:16.110Z,83.03
2022-11-16T10:16:14.806Z,83.10
2022-11-16T10:19:16.545Z,82.94
2022-11-16T10:22:19.869Z,83.10
2022-11-16T10:25:17.444Z,83.06
2022-11-16T10:28:28.807Z,82.99
2022-11-16T10:31:30.842Z,83.14
2022-11-16T10:34:26.393Z,82.92
2022-11-16T10:37:16.127Z,83.11
2022-11-16T10:40:22.302Z,83.19
2022-11-16T10:43:16.551Z,83.45
2022-11-16T10:46:15.619Z,83.64
2022-11-16T10:49:12.111Z,83.34
2022-11-16T10:52:01.534Z,83.41
2022-11-16T10:54:51.315Z,83.32
2022-11-16T11:00:45.575Z,82.66
2022-11-16T11:03:35.464Z,82.72
2022-11-16T11:06:27.845Z,82.65
2022-11-16T11:09:29.696Z,82.77
2022-11-16T11:12:41.883Z,82.65
2022-11-16T11:15:31.506Z,84.03
2022-11-16T11:18:30.208Z,85.40
2022-11-16T11:21:24.251Z,83.79
2022-11-16T11:24:43.452Z,82.63
2022-11-16T11:27:35.056Z,78.61
2022-11-16T11:30:25.129Z,78.64
2022-11-16T11:33:17.257Z,76.28
2022-11-16T11:36:14.150Z,72.24
2022-11-16T11:39:08.106Z,69.81
2022-11-16T11:42:22.228Z,64.20
2022-11-16T11:45:16.663Z,61.50
2022-11-16T11:48:22.548Z,59.09
2022-11-16T11:51:23.354Z,52.64
2022-11-16T11:54:24.222Z,55.70
2022-11-16T11:57:20.621Z,55.00
2022-11-16T12:00:14.789Z,50.34
2022-11-16T12:03:41.196Z,45.97
2022-11-16T12:06:43.749Z,45.56
2022-11-16T12:09:44.321Z,44.05
2022-11-16T12:12:52.691Z,44.64
2022-11-16T12:16:00.247Z,45.05
2022-11-16T12:19:21.177Z,44.01
2022-11-16T12:22:31.266Z,43.86
2022-11-16T12:25:27.510Z,44.00
2022-11-16T12:28:35.244Z,45.80
2022-11-16T12:31:54.279Z,44.05
2022-11-16T12:35:02.285Z,44.26
2022-11-16T12:38:05.137Z,45.08
2022-11-16T12:41:34.214Z,45.62
2022-11-16T12:44:38.915Z,45.94
2022-11-16T12:47:44.425Z,46.11
2022-11-16T12:50:52.903Z,46.23
2022-11-16T12:54:06.275Z,46.43
2022-11-16T12:57:08.456Z,46.96
2022-11-16T13:00:09.182Z,47.38
2022-11-16T13:03:15.397Z,46.03
2022-11-16T13:06:08.778Z,46.12
2022-11-16T13:09:07.984Z,45.69
2022-11-16T13:12:01.915Z,45.20
2022-11-16T13:14:54.985Z,45.32
2022-11-16T13:17:44.546Z,44.74
2022-11-16T13:20:46.276Z,45.48
2022-11-16T13:23:48.931Z,45.83
2022-11-16T13:26:46.166Z,46.68
2022-11-16T13:29:44.487Z,48.13
2022-11-16T13:32:57.432Z,49.26
2022-11-16T13:35:46.820Z,50.75
2022-11-16T13:38:53.471Z,52.11
2022-11-16T13:41:45.644Z,52.67
2022-11-16T13:44:35.967Z,53.57
2022-11-16T13:47:30.514Z,53.84
2022-11-16T13:50:23.081Z,54.79
2022-11-16T13:56:52.713Z,55.27
2022-11-16T13:59:42.386Z,55.81
2022-11-16T14:02:34.247Z,55.76
2022-11-16T14:05:41.782Z,56.31
2022-11-16T14:08:51.012Z,56.52
2022-11-16T14:11:41.575Z,57.03
2022-11-16T14:15:13.969Z,57.21
2022-11-16T14:18:33.027Z,58.02
2022-11-16T14:21:40.546Z,58.32
2022-11-16T14:24:35.124Z,58.29
2022-11-16T14:27:31.879Z,59.09
2022-11-16T14:30:26.509Z,58.95
2022-11-16T14:33:35.081Z,59.62
2022-11-16T14:36:41.404Z,59.48
2022-11-16T14:39:41.330Z,59.63
2022-11-16T14:42:48.141Z,59.60
2022-11-16T14:45:50.362Z,59.94
2022-11-16T14:48:47.156Z,59.71
2022-11-16T14:51:40.833Z,59.63
2022-11-16T14:54:39.279Z,59.94
2022-11-16T14:57:28.664Z,59.97
2022-11-16T15:00:25.906Z,60.51
2022-11-16T15:03:16.632Z,61.21
2022-11-16T15:06:08.846Z,61.00
2022-11-16T15:09:03.455Z,61.66
2022-11-16T15:12:10.960Z,61.13
2022-11-16T15:15:07.927Z,61.68
2022-11-16T15:18:13.207Z,62.07
2022-11-16T15:21:03.958Z,62.02
2022-11-16T15:24:23.631Z,62.16
2022-11-16T15:27:13.947Z,62.28
2022-11-16T15:30:15.046Z,62.36
2022-11-16T15:33:11.503Z,62.76
2022-11-16T15:36:01.083Z,63.05
2022-11-16T15:38:54.404Z,62.92
2022-11-16T15:41:44.205Z,63.21
2022-11-16T15:44:34.397Z,63.18
2022-11-16T15:47:25.621Z,63.75
2022-11-16T15:50:19.597Z,64.03
2022-11-16T15:53:36.795Z,64.76
2022-11-16T15:56:34.069Z,64.34
2022-11-16T15:59:29.265Z,64.65
2022-11-16T16:02:22.100Z,64.72
2022-11-16T16:05:23.997Z,64.77
2022-11-16T16:08:33.429Z,64.76
2022-11-16T16:11:30.921Z,64.96
2022-11-16T16:14:27.811Z,65.02
2022-11-16T16:17:26.158Z,65.04
2022-11-16T16:20:19.966Z,64.89
2022-11-16T16:23:15.358Z,64.99
2022-11-16T16:26:05.551Z,65.21
2022-11-16T16:28:56.878Z,65.49
2022-11-16T16:31:46.432Z,65.91
2022-11-16T16:34:39.258Z,66.48
2022-11-16T16:37:33.481Z,67.83
2022-11-16T16:40:22.988Z,67.15
2022-11-16T16:43:12.420Z,67.63
2022-11-16T16:46:05.153Z,67.89
2022-11-16T16:48:54.995Z,68.17
2022-11-16T16:51:44.391Z,68.02
2022-11-16T16:54:33.706Z,68.78
2022-11-16T16:57:23.116Z,69.10
2022-11-16T17:00:14.047Z,69.49
2022-11-16T17:03:04.927Z,68.94
2022-11-16T17:05:54.595Z,69.32
2022-11-16T17:08:43.808Z,68.80
2022-11-16T17:11:33.129Z,68.93
2022-11-16T17:14:24.614Z,69.16
2022-11-16T17:17:14.199Z,69.16
2022-11-16T17:20:06.225Z,69.47
2022-11-16T17:22:55.605Z,69.62
2022-11-16T17:25:45.207Z,69.75
2022-11-16T17:28:35.298Z,69.88
2022-11-16T17:31:25.725Z,70.18
2022-11-16T17:34:15.401Z,71.19
2022-11-16T17:37:06.252Z,71.04
2022-11-16T17:39:55.604Z,71.05
2022-11-16T17:42:45.246Z,71.54
2022-11-16T17:45:34.529Z,71.64
2022-11-16T17:48:23.803Z,71.85
2022-11-16T17:51:14.967Z,71.81
2022-11-16T17:54:06.101Z,72.14
2022-11-16T17:56:55.362Z,72.99
2022-11-16T17:59:44.755Z,72.36
2022-11-16T18:02:34.036Z,73.27
2022-11-16T18:05:23.416Z,73.84
2022-11-16T18:08:13.533Z,73.46
2022-11-16T18:11:19.683Z,74.37
2022-11-16T18:14:10.648Z,73.96
2022-11-16T18:17:00.074Z,73.76
2022-11-16T18:19:49.387Z,74.10
2022-11-16T18:22:39.030Z,74.04
2022-11-16T18:25:28.443Z,74.07
2022-11-16T18:28:20.658Z,74.58
2022-11-16T18:31:13.303Z,74.49
2022-11-16T18:34:03.179Z,74.48
2022-11-16T18:36:52.548Z,74.74
2022-11-16T18:39:41.882Z,75.19
2022-11-16T18:42:31.778Z,75.33
2022-11-16T18:45:22.785Z,75.71
2022-11-16T18:48:12.118Z,75.97
2022-11-16T18:51:01.964Z,75.93
2022-11-16T18:53:51.893Z,75.97
2022-11-16T18:56:41.383Z,76.67
2022-11-16T18:59:30.685Z,76.63
2022-11-16T19:02:21.678Z,76.88
2022-11-16T19:05:11.223Z,76.83
2022-11-16T19:08:00.534Z,76.92
2022-11-16T19:10:50.213Z,77.28
2022-11-16T19:13:40.807Z,77.37
2022-11-16T19:16:30.878Z,77.41
2022-11-16T19:19:21.812Z,77.54
2022-11-16T19:22:11.147Z,77.59
2022-11-16T19:25:05.873Z,78.05
2022-11-16T19:27:55.568Z,77.92
2022-11-16T19:30:44.922Z,78.07
2022-11-16T19:33:34.488Z,78.42
2022-11-16T19:36:26.694Z,78.82
2022-11-16T19:39:16.066Z,78.80
2022-11-16T19:42:05.988Z,79.36
2022-11-16T19:44:55.305Z,79.58
2022-11-16T19:47:44.754Z,79.38
2022-11-16T19:50:35.889Z,79.43
2022-11-16T19:53:26.990Z,80.06
2022-11-16T19:56:18.785Z,81.10
2022-11-16T19:59:08.164Z,80.87
2022-11-16T20:01:57.789Z,81.13
2022-11-16T20:04:47.134Z,81.06
2022-11-16T20:07:38.972Z,81.53
2022-11-16T20:10:32.387Z,81.70
2022-11-16T20:13:22.138Z,81.91
2022-11-16T20:16:14.346Z,81.79
2022-11-16T20:19:04.421Z,81.13
2022-11-16T20:21:55.440Z,81.34
2022-11-16T20:24:45.033Z,81.46
2022-11-16T20:27:36.073Z,81.17
2022-11-16T20:30:25.421Z,81.50
2022-11-16T20:33:15.092Z,81.73
2022-11-16T20:36:05.939Z,81.82
2022-11-16T20:38:55.985Z,82.01
2022-11-16T20:41:45.603Z,81.95
2022-11-16T20:44:36.621Z,82.03
2022-11-16T20:47:28.236Z,81.95
2022-11-16T20:50:19.530Z,82.93
2022-11-16T20:53:08.979Z,82.49
2022-11-16T20:55:59.594Z,83.27
2022-11-16T20:58:51.302Z,82.93
2022-11-16T21:01:47.858Z,82.90
2022-11-16T21:04:38.658Z,84.08
2022-11-16T21:07:30.853Z,83.88
2022-11-16T21:10:21.502Z,83.77
2022-11-16T21:13:35.533Z,83.77
2022-11-16T21:16:25.565Z,84.03
2022-11-16T21:19:17.292Z,83.52
2022-11-16T21:22:07.888Z,83.81
2022-11-16T21:24:57.912Z,84.04
2022-11-16T21:27:47.530Z,84.92
2022-11-16T21:30:41.050Z,84.18
2022-11-16T21:33:32.796Z,84.15
2022-11-16T21:36:26.491Z,84.54
2022-11-16T21:39:16.039Z,84.14
2022-11-16T21:42:06.911Z,84.00
2022-11-16T21:44:56.683Z,84.13
2022-11-16T21:47:46.460Z,83.94
2022-11-16T21:50:36.864Z,83.51
2022-11-16T21:53:27.703Z,83.14
2022-11-16T21:56:20.322Z,83.11
2022-11-16T21:59:10.035Z,83.07
2022-11-16T22:02:02.325Z,82.89
2022-11-16T22:05:09.346Z,82.86
2022-11-16T22:07:58.590Z,83.12
2022-11-16T22:10:52.635Z,82.94
2022-11-16T22:13:43.165Z,83.11
2022-11-16T22:16:32.544Z,83.16
2022-11-16T22:19:22.276Z,82.88
2022-11-16T22:22:11.695Z,83.35
2022-11-16T22:25:01.329Z,83.60
2022-11-16T22:28:19.065Z,83.84
2022-11-16T22:31:03.192Z,84.37
2022-11-16T22:33:54.725Z,84.33
2022-11-16T22:36:43.972Z,84.59
2022-11-16T22:39:33.568Z,84.71
2022-11-16T22:42:23.248Z,84.85
2022-11-16T22:45:14.728Z,84.67
2022-11-16T22:48:04.059Z,85.09
2022-11-16T22:51:05.180Z,84.87
2022-11-16T22:53:55.739Z,85.37
2022-11-16T22:56:45.377Z,85.26
2022-11-16T22:59:35.215Z,85.38
2022-11-16T23:02:26.247Z,85.26
2022-11-16T23:05:16.334Z,85.17
2022-11-16T23:08:06.410Z,85.60
2022-11-16T23:11:18.761Z,85.65
2022-11-16T23:14:31.256Z,85.69
2022-11-16T23:17:20.772Z,85.99
2022-11-16T23:20:30.379Z,85.82
2022-11-16T23:23:38.252Z,85.82
2022-11-16T23:26:45.119Z,86.38
2022-11-16T23:29:34.701Z,85.94
2022-11-16T23:32:24.215Z,86.19
2022-11-16T23:35:15.572Z,86.20
2022-11-16T23:38:07.562Z,86.18
2022-11-16T23:40:58.627Z,86.22
2022-11-16T23:43:59.819Z,86.29
2022-11-16T23:46:49.382Z,86.14
2022-11-16T23:49:39.317Z,85.99
2022-11-16T23:52:30.362Z,86.09
2022-11-16T23:55:19.863Z,86.06
2022-11-16T23:58:14.713Z,86.64
